Big Bear Station Historical Data
Daily Summary for February 4, 2019 Units:  English    Metric   Both
Next Day »
Daily Weekly Monthly Yearly Custom
  High: Low: Average:
Temperature: 33.6 °F 26.2 °F 30 °F
Dew Point: 31.8 °F 24.7 °F 29 °F
Humidity: 97% 93% 96%
Wind Speed: 16.1mph 0.0mph 3.7mph
Wind Gust: -999.0mph - -
Wind- - South
Pressure: 23.24 in 23.15 in -
Precipitation: 0.00 in    
Historical Graphs
 
 
Tabular Data for February 4, 2019
Time Temperature Dew Point Pressure Wind Wind Speed Wind Gust Humidity Rainfall Rate (Hourly)
00:11 30.4 °F 29.7 °F 23.24 in Calm   -999.0 mph 97% 0.00 in
00:26 30.4 °F 29.7 °F 23.24 in Calm   -999.0 mph 97% 0.00 in
00:41 30.2 °F 29.5 °F 23.23 in Calm   -999.0 mph 97% 0.00 in
00:56 30.2 °F 29.5 °F 23.23 in Calm   -999.0 mph 97% 0.00 in
01:12 30.2 °F 29.5 °F 23.23 in Calm   -999.0 mph 97% 0.00 in
01:27 30.2 °F 29.5 °F 23.22 in Calm   -999.0 mph 97% 0.00 in
01:42 30.2 °F 29.5 °F 23.22 in Calm   -999.0 mph 97% 0.00 in
01:57 30.2 °F 29.5 °F 23.22 in ESE 2.7 mph -999.0 mph 97% 0.00 in
02:13 30.0 °F 29.3 °F 23.21 in Calm   -999.0 mph 97% 0.00 in
02:28 29.8 °F 29.1 °F 23.20 in SSE 2.7 mph -999.0 mph 97% 0.00 in
02:43 29.7 °F 29.0 °F 23.19 in South 1.7 mph -999.0 mph 97% 0.00 in
02:58 29.5 °F 28.8 °F 23.18 in East 1.7 mph -999.0 mph 97% 0.00 in
03:14 29.5 °F 28.8 °F 23.18 in SSE 1.1 mph -999.0 mph 97% 0.00 in
03:29 29.5 °F 28.8 °F 23.17 in SW 2.7 mph -999.0 mph 97% 0.00 in
03:44 29.5 °F 28.8 °F 23.17 in SSW 3.2 mph -999.0 mph 97% 0.00 in
04:00 29.5 °F 28.8 °F 23.16 in Calm   -999.0 mph 97% 0.00 in
04:15 29.1 °F 28.4 °F 23.16 in SSW 3.7 mph -999.0 mph 97% 0.00 in
04:30 28.8 °F 28.1 °F 23.16 in West 2.2 mph -999.0 mph 97% 0.00 in
04:45 28.8 °F 28.1 °F 23.16 in SW 3.2 mph -999.0 mph 97% 0.00 in
05:00 28.8 °F 28.1 °F 23.16 in SSW 2.2 mph -999.0 mph 97% 0.00 in
05:16 28.9 °F 28.2 °F 23.16 in SE 4.7 mph -999.0 mph 97% 0.00 in
05:31 29.1 °F 28.4 °F 23.16 in SSW 4.7 mph -999.0 mph 97% 0.00 in
05:47 29.5 °F 28.8 °F 23.15 in SW 6.3 mph -999.0 mph 97% 0.00 in
06:02 29.5 °F 28.8 °F 23.15 in NW 4.2 mph -999.0 mph 97% 0.00 in
06:18 29.7 °F 29.0 °F 23.16 in East 2.7 mph -999.0 mph 97% 0.00 in
06:33 29.3 °F 28.6 °F 23.16 in ESE 2.7 mph -999.0 mph 97% 0.00 in
06:49 28.9 °F 28.2 °F 23.15 in ESE 6.8 mph -999.0 mph 97% 0.00 in
07:04 28.8 °F 27.8 °F 23.15 in West 14.5 mph -999.0 mph 96% 0.00 in
07:19 29.3 °F 28.6 °F 23.16 in ESE 2.7 mph -999.0 mph 97% 0.00 in
07:35 29.7 °F 29.0 °F 23.16 in South 2.7 mph -999.0 mph 97% 0.00 in
07:50 29.8 °F 29.1 °F 23.16 in SW 5.8 mph -999.0 mph 97% 0.00 in
08:05 30.0 °F 29.0 °F 23.16 in East 1.7 mph -999.0 mph 96% 0.00 in
08:20 30.4 °F 29.1 °F 23.16 in SE 11.9 mph -999.0 mph 95% 0.00 in
08:35 30.6 °F 29.3 °F 23.17 in South 8.9 mph -999.0 mph 95% 0.00 in
08:51 31.1 °F 29.8 °F 23.18 in West 4.7 mph -999.0 mph 95% 0.00 in
09:06 31.6 °F 30.3 °F 23.18 in SW 4.2 mph -999.0 mph 95% 0.00 in
09:21 31.6 °F 30.3 °F 23.18 in SW 13.0 mph -999.0 mph 95% 0.00 in
09:37 31.3 °F 30.0 °F 23.18 in South 5.8 mph -999.0 mph 95% 0.00 in
09:52 31.5 °F 30.0 °F 23.18 in SSE 4.2 mph -999.0 mph 94% 0.00 in
10:08 32.2 °F 30.4 °F 23.18 in South 4.2 mph -999.0 mph 93% 0.00 in
10:23 32.0 °F 30.2 °F 23.19 in South 6.3 mph -999.0 mph 93% 0.00 in
10:39 32.4 °F 30.9 °F 23.19 in ESE 5.3 mph -999.0 mph 94% 0.00 in
10:54 32.2 °F 30.7 °F 23.19 in South 4.7 mph -999.0 mph 94% 0.00 in
11:09 33.6 °F 31.8 °F 23.19 in South 4.7 mph -999.0 mph 93% 0.00 in
11:25 33.4 °F 31.6 °F 23.19 in SSW 9.9 mph -999.0 mph 93% 0.00 in
11:40 33.6 °F 31.8 °F 23.19 in NNW 7.3 mph -999.0 mph 93% 0.00 in
11:55 32.2 °F 30.7 °F 23.20 in South 10.4 mph -999.0 mph 94% 0.00 in
12:11 32.4 °F 30.9 °F 23.19 in ESE 4.2 mph -999.0 mph 94% 0.00 in
12:26 32.0 °F 30.7 °F 23.19 in SSE 5.8 mph -999.0 mph 95% 0.00 in
12:42 31.3 °F 30.3 °F 23.18 in NNE 4.7 mph -999.0 mph 96% 0.00 in
12:57 31.6 °F 30.6 °F 23.18 in SW 3.2 mph -999.0 mph 96% 0.00 in
13:13 31.8 °F 31.0 °F 23.18 in SW 4.2 mph -999.0 mph 97% 0.00 in
13:28 32.5 °F 31.2 °F 23.17 in WNW 3.7 mph -999.0 mph 95% 0.00 in
13:44 32.5 °F 31.2 °F 23.17 in NW 2.7 mph -999.0 mph 95% 0.00 in
13:59 32.4 °F 31.1 °F 23.16 in SSW 4.7 mph -999.0 mph 95% 0.00 in
14:15 32.4 °F 31.6 °F 23.16 in South 6.3 mph -999.0 mph 97% 0.00 in
14:30 32.4 °F 31.4 °F 23.16 in South 3.7 mph -999.0 mph 96% 0.00 in
14:45 32.2 °F 31.2 °F 23.16 in SSW 4.7 mph -999.0 mph 96% 0.00 in
15:00 32.2 °F 31.2 °F 23.16 in Calm   -999.0 mph 96% 0.00 in
15:18 32.0 °F 31.0 °F 23.15 in Calm   -999.0 mph 96% 0.00 in
15:33 31.6 °F 30.3 °F 23.15 in Calm   -999.0 mph 95% 0.00 in
15:48 31.6 °F 30.6 °F 23.15 in Calm   -999.0 mph 96% 0.00 in
16:04 31.5 °F 30.5 °F 23.15 in Calm   -999.0 mph 96% 0.00 in
16:19 31.1 °F 30.1 °F 23.16 in Calm   -999.0 mph 96% 0.00 in
16:34 30.9 °F 29.9 °F 23.16 in Calm   -999.0 mph 96% 0.00 in
16:49 30.4 °F 29.7 °F 23.16 in Calm   -999.0 mph 97% 0.00 in
17:04 30.4 °F 29.7 °F 23.16 in Calm   -999.0 mph 97% 0.00 in
17:20 30.4 °F 29.7 °F 23.16 in Calm   -999.0 mph 97% 0.00 in
17:35 29.1 °F 28.1 °F 23.17 in Calm   -999.0 mph 96% 0.00 in
17:50 28.9 °F 28.2 °F 23.17 in Calm   -999.0 mph 97% 0.00 in
18:05 28.6 °F 27.9 °F 23.18 in Calm   -999.0 mph 97% 0.00 in
18:21 27.9 °F 26.9 °F 23.19 in Calm   -999.0 mph 96% 0.00 in
18:36 27.9 °F 26.9 °F 23.19 in Calm   -999.0 mph 96% 0.00 in
18:51 27.7 °F 27.0 °F 23.19 in Calm   -999.0 mph 97% 0.00 in
19:06 27.1 °F 25.9 °F 23.18 in Calm   -999.0 mph 95% 0.00 in
19:21 27.0 °F 25.5 °F 23.19 in SSW 10.4 mph -999.0 mph 94% 0.00 in
19:37 26.4 °F 24.7 °F 23.19 in South 6.8 mph -999.0 mph 93% 0.00 in
19:52 26.2 °F 24.7 °F 23.19 in SE 3.7 mph -999.0 mph 94% 0.00 in
20:08 26.6 °F 25.9 °F 23.18 in SSE 4.2 mph -999.0 mph 97% 0.00 in
20:23 27.1 °F 26.4 °F 23.17 in NE 1.7 mph -999.0 mph 97% 0.00 in
20:38 27.3 °F 26.3 °F 23.17 in SSW 8.3 mph -999.0 mph 96% 0.00 in
20:53 27.5 °F 26.5 °F 23.17 in South 7.3 mph -999.0 mph 96% 0.00 in
21:09 27.5 °F 26.5 °F 23.17 in West 4.7 mph -999.0 mph 96% 0.00 in
21:24 27.1 °F 26.1 °F 23.17 in NNE 3.7 mph -999.0 mph 96% 0.00 in
21:40 27.0 °F 25.8 °F 23.18 in SSE 16.1 mph -999.0 mph 95% 0.00 in
21:55 27.0 °F 26.0 °F 23.18 in South 1.7 mph -999.0 mph 96% 0.00 in
22:10 27.0 °F 26.0 °F 23.17 in South 9.4 mph -999.0 mph 96% 0.00 in
Big Bear CA Weather